sensor_id;sensor_type;location;lat;lon;timestamp;pressure;altitude;pressure_sealevel;temperature;humidity
74637;BME280;63141;54.616;39.754;2023-06-22T00:03:17;100438.06;;;23.18;41.22
74637;BME280;63141;54.616;39.754;2023-06-22T00:06:19;100440.72;;;23.18;40.98
74637;BME280;63141;54.616;39.754;2023-06-22T00:09:21;100444.38;;;23.15;41.06
74637;BME280;63141;54.616;39.754;2023-06-22T00:12:22;100443.53;;;23.15;41.12
74637;BME280;63141;54.616;39.754;2023-06-22T00:15:23;100443.53;;;23.15;41.21
74637;BME280;63141;54.616;39.754;2023-06-22T00:18:27;100442.72;;;23.13;41.08
74637;BME280;63141;54.616;39.754;2023-06-22T00:21:34;100448.97;;;23.12;41.15
74637;BME280;63141;54.616;39.754;2023-06-22T00:24:35;100452.53;;;23.11;41.10
74637;BME280;63141;54.616;39.754;2023-06-22T00:27:37;100452.53;;;23.11;41.09
74637;BME280;63141;54.616;39.754;2023-06-22T00:30:44;100456.13;;;23.10;41.17
74637;BME280;63141;54.616;39.754;2023-06-22T00:33:49;100446.41;;;23.09;41.27
74637;BME280;63141;54.616;39.754;2023-06-22T00:36:51;100452.66;;;23.08;41.18
74637;BME280;63141;54.616;39.754;2023-06-22T00:39:53;100445.63;;;23.07;40.99
74637;BME280;63141;54.616;39.754;2023-06-22T00:42:55;100441.19;;;23.07;40.98
74637;BME280;63141;54.616;39.754;2023-06-22T00:45:56;100437.66;;;23.07;41.17
74637;BME280;63141;54.616;39.754;2023-06-22T00:48:58;100434.25;;;23.03;41.14
74637;BME280;63141;54.616;39.754;2023-06-22T00:52:03;100436.84;;;23.05;41.43
74637;BME280;63141;54.616;39.754;2023-06-22T00:55:04;100435.09;;;23.04;41.28
74637;BME280;63141;54.616;39.754;2023-06-22T00:58:11;100447.53;;;23.03;41.10
74637;BME280;63141;54.616;39.754;2023-06-22T01:01:13;100454.63;;;23.03;41.34
74637;BME280;63141;54.616;39.754;2023-06-22T01:04:34;100457.28;;;23.03;41.27
74637;BME280;63141;54.616;39.754;2023-06-22T01:07:53;100457.34;;;23.01;41.30
74637;BME280;63141;54.616;39.754;2023-06-22T01:11:10;100461.78;;;23.00;41.27
74637;BME280;63141;54.616;39.754;2023-06-22T01:14:23;100463.50;;;23.02;41.36
74637;BME280;63141;54.616;39.754;2023-06-22T01:17:26;100460.94;;;22.98;41.46
74637;BME280;63141;54.616;39.754;2023-06-22T01:20:29;100466.28;;;22.98;41.35
74637;BME280;63141;54.616;39.754;2023-06-22T01:29:57;100461.88;;;22.97;41.24
74637;BME280;63141;54.616;39.754;2023-06-22T01:33:05;100465.41;;;22.98;41.25
74637;BME280;63141;54.616;39.754;2023-06-22T01:36:07;100465.47;;;22.96;41.70
74637;BME280;63141;54.616;39.754;2023-06-22T01:39:13;100469.06;;;22.95;41.44
74637;BME280;63141;54.616;39.754;2023-06-22T01:42:16;100466.41;;;22.95;41.52
74637;BME280;63141;54.616;39.754;2023-06-22T01:45:18;100464.66;;;22.94;41.40
74637;BME280;63141;54.616;39.754;2023-06-22T01:48:20;100467.31;;;22.94;41.53
74637;BME280;63141;54.616;39.754;2023-06-22T01:51:21;100470.91;;;22.93;41.55
74637;BME280;63141;54.616;39.754;2023-06-22T01:54:23;100481.44;;;22.95;41.39
74637;BME280;63141;54.616;39.754;2023-06-22T01:57:24;100469.97;;;22.94;41.43
74637;BME280;63141;54.616;39.754;2023-06-22T02:00:28;100470.91;;;22.93;41.60
74637;BME280;63141;54.616;39.754;2023-06-22T02:07:23;100476.22;;;22.93;41.67
74637;BME280;63141;54.616;39.754;2023-06-22T02:10:26;100476.22;;;22.93;41.63
74637;BME280;63141;54.616;39.754;2023-06-22T02:13:32;100467.34;;;22.93;41.58
74637;BME280;63141;54.616;39.754;2023-06-22T02:16:35;100472.75;;;22.91;41.70
74637;BME280;63141;54.616;39.754;2023-06-22T02:19:41;100475.31;;;22.93;41.73
74637;BME280;63141;54.616;39.754;2023-06-22T02:22:45;100479.78;;;22.92;41.76
74637;BME280;63141;54.616;39.754;2023-06-22T02:25:46;100477.13;;;22.92;41.83
74637;BME280;63141;54.616;39.754;2023-06-22T02:28:50;100479.78;;;22.92;41.90
74637;BME280;63141;54.616;39.754;2023-06-22T02:31:52;100479.78;;;22.92;41.69
74637;BME280;63141;54.616;39.754;2023-06-22T02:34:54;100473.66;;;22.90;42.01
74637;BME280;63141;54.616;39.754;2023-06-22T02:37:59;100475.41;;;22.91;41.90
74637;BME280;63141;54.616;39.754;2023-06-22T02:41:01;100475.41;;;22.91;41.89
74637;BME280;63141;54.616;39.754;2023-06-22T02:44:02;100476.31;;;22.90;42.08
74637;BME280;63141;54.616;39.754;2023-06-22T02:47:04;100481.63;;;22.90;42.29
74637;BME280;63141;54.616;39.754;2023-06-22T02:50:06;100481.63;;;22.90;42.18
74637;BME280;63141;54.616;39.754;2023-06-22T02:53:09;100472.78;;;22.90;42.19
74637;BME280;63141;54.616;39.754;2023-06-22T02:56:13;100480.75;;;22.90;42.19
74637;BME280;63141;54.616;39.754;2023-06-22T02:59:15;100480.75;;;22.90;42.41
74637;BME280;63141;54.616;39.754;2023-06-22T03:02:19;100481.63;;;22.90;42.32
74637;BME280;63141;54.616;39.754;2023-06-22T03:05:25;100477.19;;;22.91;42.09
74637;BME280;63141;54.616;39.754;2023-06-22T03:08:30;100486.94;;;22.90;41.96
74637;BME280;63141;54.616;39.754;2023-06-22T03:11:35;100486.94;;;22.90;41.67
74637;BME280;63141;54.616;39.754;2023-06-22T03:14:36;100483.47;;;22.88;41.31
74637;BME280;63141;54.616;39.754;2023-06-22T03:17:40;100484.34;;;22.89;41.58
74637;BME280;63141;54.616;39.754;2023-06-22T03:20:42;100487.91;;;22.88;41.38
74637;BME280;63141;54.616;39.754;2023-06-22T03:23:47;100488.78;;;22.88;41.46
74637;BME280;63141;54.616;39.754;2023-06-22T03:26:48;100481.75;;;22.87;41.38
74637;BME280;63141;54.616;39.754;2023-06-22T03:29:52;100469.41;;;22.86;41.30
74637;BME280;63141;54.616;39.754;2023-06-22T03:32:57;100476.44;;;22.87;41.48
74637;BME280;63141;54.616;39.754;2023-06-22T03:35:58;100474.63;;;22.88;41.50
74637;BME280;63141;54.616;39.754;2023-06-22T03:38:59;100473.78;;;22.87;41.20
74637;BME280;63141;54.616;39.754;2023-06-22T03:42:01;100470.25;;;22.87;41.08
74637;BME280;63141;54.616;39.754;2023-06-22T03:45:03;100478.16;;;22.88;41.30
74637;BME280;63141;54.616;39.754;2023-06-22T03:48:08;100471.13;;;22.87;41.17
74637;BME280;63141;54.616;39.754;2023-06-22T03:51:09;100478.16;;;22.88;41.16
74637;BME280;63141;54.616;39.754;2023-06-22T03:54:14;100474.59;;;22.89;41.49
74637;BME280;63141;54.616;39.754;2023-06-22T03:57:15;100469.28;;;22.89;41.74
74637;BME280;63141;54.616;39.754;2023-06-22T04:00:20;100463.97;;;22.89;41.67
74637;BME280;63141;54.616;39.754;2023-06-22T04:03:26;100459.50;;;22.90;41.74
74637;BME280;63141;54.616;39.754;2023-06-22T04:06:27;100460.38;;;22.90;42.10
74637;BME280;63141;54.616;39.754;2023-06-22T04:09:29;100465.69;;;22.90;42.08
74637;BME280;63141;54.616;39.754;2023-06-22T04:12:30;100466.56;;;22.91;42.40
74637;BME280;63141;54.616;39.754;2023-06-22T04:15:31;100460.31;;;22.92;42.13
74637;BME280;63141;54.616;39.754;2023-06-22T04:18:39;100461.25;;;22.91;41.88
74637;BME280;63141;54.616;39.754;2023-06-22T04:21:40;100471.88;;;22.91;42.17
74637;BME280;63141;54.616;39.754;2023-06-22T04:24:41;100466.56;;;22.91;42.08
74637;BME280;63141;54.616;39.754;2023-06-22T04:27:43;100467.44;;;22.91;42.22
74637;BME280;63141;54.616;39.754;2023-06-22T04:30:47;100466.50;;;22.92;42.43
74637;BME280;63141;54.616;39.754;2023-06-22T04:33:48;100460.28;;;22.93;42.80
74637;BME280;63141;54.616;39.754;2023-06-22T04:36:52;100466.41;;;22.95;42.79
74637;BME280;63141;54.616;39.754;2023-06-22T04:39:59;100473.44;;;22.96;43.62
74637;BME280;63141;54.616;39.754;2023-06-22T04:43:01;100461.88;;;22.97;43.21
74637;BME280;63141;54.616;39.754;2023-06-22T04:46:03;100457.44;;;22.98;43.35
74637;BME280;63141;54.616;39.754;2023-06-22T04:49:08;100455.63;;;23.00;43.74
74637;BME280;63141;54.616;39.754;2023-06-22T04:52:13;100458.28;;;23.00;44.46
74637;BME280;63141;54.616;39.754;2023-06-22T04:55:23;100454.72;;;22.99;44.27
74637;BME280;63141;54.616;39.754;2023-06-22T04:58:30;100461.78;;;23.00;44.63
74637;BME280;63141;54.616;39.754;2023-06-22T05:01:33;100460.94;;;23.00;45.04
74637;BME280;63141;54.616;39.754;2023-06-22T05:04:42;100456.47;;;23.00;44.95
74637;BME280;63141;54.616;39.754;2023-06-22T05:07:45;100449.41;;;22.99;44.99
74637;BME280;63141;54.616;39.754;2023-06-22T05:10:52;100452.88;;;23.02;45.20
74637;BME280;63141;54.616;39.754;2023-06-22T05:13:53;100452.88;;;23.02;45.14
74637;BME280;63141;54.616;39.754;2023-06-22T05:16:55;100455.63;;;23.00;45.09
74637;BME280;63141;54.616;39.754;2023-06-22T05:20:06;100458.19;;;23.02;45.17
74637;BME280;63141;54.616;39.754;2023-06-22T05:23:10;100444.06;;;23.01;44.30
74637;BME280;63141;54.616;39.754;2023-06-22T05:26:21;100446.66;;;23.03;43.18
74637;BME280;63141;54.616;39.754;2023-06-22T05:29:23;100451.97;;;23.03;42.78
74637;BME280;63141;54.616;39.754;2023-06-22T05:32:24;100445.72;;;23.04;42.48
74637;BME280;63141;54.616;39.754;2023-06-22T05:35:25;100451.03;;;23.04;42.43
74637;BME280;63141;54.616;39.754;2023-06-22T05:38:27;100445.72;;;23.04;42.03
74637;BME280;63141;54.616;39.754;2023-06-22T05:41:28;100428.88;;;23.05;41.36
74637;BME280;63141;54.616;39.754;2023-06-22T05:44:30;100427.94;;;23.06;41.31
74637;BME280;63141;54.616;39.754;2023-06-22T05:47:31;100419.16;;;23.04;40.41
74637;BME280;63141;54.616;39.754;2023-06-22T05:50:33;100419.06;;;23.07;40.04
74637;BME280;63141;54.616;39.754;2023-06-22T05:53:34;100420.78;;;23.08;39.74
74637;BME280;63141;54.616;39.754;2023-06-22T05:56:35;100413.63;;;23.10;39.13
74637;BME280;63141;54.616;39.754;2023-06-22T05:59:40;100425.09;;;23.10;38.85
74637;BME280;63141;54.616;39.754;2023-06-22T06:02:43;100414.44;;;23.12;38.52
74637;BME280;63141;54.616;39.754;2023-06-22T06:05:45;100417.94;;;23.12;38.39
74637;BME280;63141;54.616;39.754;2023-06-22T06:08:52;100415.28;;;23.12;38.07
74637;BME280;63141;54.616;39.754;2023-06-22T06:11:56;100410.81;;;23.13;38.21
74637;BME280;63141;54.616;39.754;2023-06-22T06:14:57;100405.47;;;23.14;38.49
74637;BME280;63141;54.616;39.754;2023-06-22T06:18:01;100408.06;;;23.16;37.99
74637;BME280;63141;54.616;39.754;2023-06-22T06:21:06;100409.78;;;23.17;37.57
74637;BME280;63141;54.616;39.754;2023-06-22T06:24:11;100406.19;;;23.18;37.50
74637;BME280;63141;54.616;39.754;2023-06-22T06:27:13;100405.28;;;23.19;37.22
74637;BME280;63141;54.616;39.754;2023-06-22T06:30:22;100404.34;;;23.20;37.26
74637;BME280;63141;54.616;39.754;2023-06-22T06:33:36;100403.44;;;23.21;37.03
74637;BME280;63141;54.616;39.754;2023-06-22T06:36:37;100402.47;;;23.22;37.19
74637;BME280;63141;54.616;39.754;2023-06-22T06:39:44;100398.91;;;23.23;37.21
74637;BME280;63141;54.616;39.754;2023-06-22T06:42:51;100398.91;;;23.23;37.11
74637;BME280;63141;54.616;39.754;2023-06-22T06:45:53;100400.63;;;23.24;37.41
74637;BME280;63141;54.616;39.754;2023-06-22T06:48:57;100396.25;;;23.23;37.22
74637;BME280;63141;54.616;39.754;2023-06-22T06:52:01;100403.28;;;23.24;36.99
74637;BME280;63141;54.616;39.754;2023-06-22T06:55:06;100400.63;;;23.24;36.91
74637;BME280;63141;54.616;39.754;2023-06-22T06:58:09;100399.72;;;23.25;36.87
74637;BME280;63141;54.616;39.754;2023-06-22T07:01:17;100404.97;;;23.27;37.02
74637;BME280;63141;54.616;39.754;2023-06-22T07:04:26;100396.97;;;23.27;37.10
74637;BME280;63141;54.616;39.754;2023-06-22T07:07:27;100396.97;;;23.27;36.90
74637;BME280;63141;54.616;39.754;2023-06-22T07:10:31;100384.56;;;23.27;37.13
74637;BME280;63141;54.616;39.754;2023-06-22T07:13:35;100396.94;;;23.28;36.95
74637;BME280;63141;54.616;39.754;2023-06-22T07:16:37;100396.94;;;23.28;37.06
74637;BME280;63141;54.616;39.754;2023-06-22T07:19:44;100399.59;;;23.28;36.96
74637;BME280;63141;54.616;39.754;2023-06-22T07:22:51;100391.63;;;23.28;36.76
74637;BME280;63141;54.616;39.754;2023-06-22T07:25:58;100394.22;;;23.30;36.92
74637;BME280;63141;54.616;39.754;2023-06-22T07:29:05;100381.00;;;23.28;36.84
74637;BME280;63141;54.616;39.754;2023-06-22T07:32:15;100382.66;;;23.31;36.16
74637;BME280;63141;54.616;39.754;2023-06-22T07:35:25;100383.50;;;23.31;36.49
74637;BME280;63141;54.616;39.754;2023-06-22T07:38:30;100377.28;;;23.32;36.35
74637;BME280;63141;54.616;39.754;2023-06-22T07:41:46;100384.25;;;23.35;36.79
74637;BME280;63141;54.616;39.754;2023-06-22T07:45:03;100389.50;;;23.36;36.75
74637;BME280;63141;54.616;39.754;2023-06-22T07:48:07;100380.59;;;23.37;36.44
74637;BME280;63141;54.616;39.754;2023-06-22T07:51:18;100384.13;;;23.38;36.51
74637;BME280;63141;54.616;39.754;2023-06-22T07:54:34;100377.00;;;23.38;36.78
74637;BME280;63141;54.616;39.754;2023-06-22T07:57:56;100371.69;;;23.38;36.64
74637;BME280;63141;54.616;39.754;2023-06-22T08:01:25;100373.44;;;23.39;36.77
74637;BME280;63141;54.616;39.754;2023-06-22T08:04:34;100377.00;;;23.38;37.11
74637;BME280;63141;54.616;39.754;2023-06-22T08:07:41;100371.78;;;23.37;37.39
74637;BME280;63141;54.616;39.754;2023-06-22T08:10:56;100369.97;;;23.37;37.18
74637;BME280;63141;54.616;39.754;2023-06-22T08:14:03;100363.81;;;23.37;37.08
74637;BME280;63141;54.616;39.754;2023-06-22T08:17:16;100365.66;;;23.35;37.01
74637;BME280;63141;54.616;39.754;2023-06-22T08:20:18;100365.66;;;23.35;36.83
74637;BME280;63141;54.616;39.754;2023-06-22T08:23:22;100358.53;;;23.35;36.79
74637;BME280;63141;54.616;39.754;2023-06-22T08:26:26;100355.88;;;23.35;37.09
74637;BME280;63141;54.616;39.754;2023-06-22T08:29:36;100362.91;;;23.36;37.31
74637;BME280;63141;54.616;39.754;2023-06-22T08:33:04;100361.19;;;23.35;37.23
74637;BME280;63141;54.616;39.754;2023-06-22T08:36:05;100346.19;;;23.34;37.55
74637;BME280;63141;54.616;39.754;2023-06-22T08:39:13;100350.56;;;23.35;37.58
74637;BME280;63141;54.616;39.754;2023-06-22T08:42:22;100349.72;;;23.35;37.68
74637;BME280;63141;54.616;39.754;2023-06-22T08:45:25;100352.41;;;23.33;37.60
74637;BME280;63141;54.616;39.754;2023-06-22T08:48:31;100347.09;;;23.33;37.30
74637;BME280;63141;54.616;39.754;2023-06-22T08:51:39;100349.72;;;23.35;37.72
74637;BME280;63141;54.616;39.754;2023-06-22T08:54:43;100348.84;;;23.34;37.49
74637;BME280;63141;54.616;39.754;2023-06-22T08:58:08;100340.94;;;23.33;37.55
74637;BME280;63141;54.616;39.754;2023-06-22T09:01:13;100343.53;;;23.34;37.61
74637;BME280;63141;54.616;39.754;2023-06-22T09:04:25;100343.53;;;23.34;37.55
74637;BME280;63141;54.616;39.754;2023-06-22T09:07:26;100341.78;;;23.33;37.84
74637;BME280;63141;54.616;39.754;2023-06-22T09:10:30;100349.75;;;23.33;37.54
74637;BME280;63141;54.616;39.754;2023-06-22T09:13:35;100336.47;;;23.33;38.13
74637;BME280;63141;54.616;39.754;2023-06-22T09:16:38;100336.47;;;23.33;38.17
74637;BME280;63141;54.616;39.754;2023-06-22T09:19:39;100335.56;;;23.34;38.91
74637;BME280;63141;54.616;39.754;2023-06-22T09:22:55;100345.25;;;23.35;39.55
74637;BME280;63141;54.616;39.754;2023-06-22T09:26:14;100333.69;;;23.36;40.03
74637;BME280;63141;54.616;39.754;2023-06-22T09:29:25;100331.97;;;23.35;39.67
74637;BME280;63141;54.616;39.754;2023-06-22T09:32:38;100325.69;;;23.36;39.76
74637;BME280;63141;54.616;39.754;2023-06-22T09:35:42;100341.66;;;23.36;39.91
74637;BME280;63141;54.616;39.754;2023-06-22T09:38:47;100326.66;;;23.35;39.51
74637;BME280;63141;54.616;39.754;2023-06-22T09:42:06;100318.66;;;23.35;39.67
74637;BME280;63141;54.616;39.754;2023-06-22T09:45:10;100319.53;;;23.36;39.53
74637;BME280;63141;54.616;39.754;2023-06-22T09:48:17;100319.53;;;23.36;39.43
74637;BME280;63141;54.616;39.754;2023-06-22T09:51:22;100311.50;;;23.37;39.03
74637;BME280;63141;54.616;39.754;2023-06-22T09:54:28;100305.34;;;23.37;39.03
74637;BME280;63141;54.616;39.754;2023-06-22T09:57:32;100299.94;;;23.38;39.02
74637;BME280;63141;54.616;39.754;2023-06-22T10:00:39;100306.03;;;23.40;38.95
74637;BME280;63141;54.616;39.754;2023-06-22T10:03:48;100301.63;;;23.41;38.91
74637;BME280;63141;54.616;39.754;2023-06-22T10:07:03;100287.38;;;23.42;39.00
74637;BME280;63141;54.616;39.754;2023-06-22T10:10:09;100283.72;;;23.45;38.68
74637;BME280;63141;54.616;39.754;2023-06-22T10:13:19;100285.47;;;23.46;38.41
74637;BME280;63141;54.616;39.754;2023-06-22T10:16:33;100280.66;;;23.54;39.00
74637;BME280;63141;54.616;39.754;2023-06-22T10:19:39;100279.56;;;23.59;39.46
74637;BME280;63141;54.616;39.754;2023-06-22T10:22:58;100281.88;;;23.67;39.51
74637;BME280;63141;54.616;39.754;2023-06-22T10:26:05;100278.16;;;23.71;39.64
74637;BME280;63141;54.616;39.754;2023-06-22T10:29:07;100272.81;;;23.71;39.83
74637;BME280;63141;54.616;39.754;2023-06-22T10:32:11;100260.59;;;23.67;39.52
74637;BME280;63141;54.616;39.754;2023-06-22T10:35:15;100262.59;;;23.62;39.51
74637;BME280;63141;54.616;39.754;2023-06-22T10:38:19;100259.13;;;23.60;39.64
74637;BME280;63141;54.616;39.754;2023-06-22T10:41:20;100254.81;;;23.57;39.75
74637;BME280;63141;54.616;39.754;2023-06-22T10:44:25;100255.81;;;23.55;39.63
74637;BME280;63141;54.616;39.754;2023-06-22T10:47:29;100256.75;;;23.54;39.54
74637;BME280;63141;54.616;39.754;2023-06-22T10:50:42;100250.63;;;23.52;39.40
74637;BME280;63141;54.616;39.754;2023-06-22T10:53:43;100247.16;;;23.50;39.61
74637;BME280;63141;54.616;39.754;2023-06-22T10:56:45;100250.72;;;23.50;39.49
74637;BME280;63141;54.616;39.754;2023-06-22T10:59:52;100242.75;;;23.50;39.59
74637;BME280;63141;54.616;39.754;2023-06-22T11:02:59;100251.44;;;23.54;39.93
74637;BME280;63141;54.616;39.754;2023-06-22T11:06:03;100245.06;;;23.58;40.98
74637;BME280;63141;54.616;39.754;2023-06-22T11:09:16;100237.72;;;23.63;41.54
74637;BME280;63141;54.616;39.754;2023-06-22T11:12:27;100228.69;;;23.67;41.39
74637;BME280;63141;54.616;39.754;2023-06-22T11:15:31;100234.78;;;23.69;41.48
74637;BME280;63141;54.616;39.754;2023-06-22T11:18:35;100223.22;;;23.70;41.46
74637;BME280;63141;54.616;39.754;2023-06-22T11:21:37;100233.06;;;23.68;40.87
74637;BME280;63141;54.616;39.754;2023-06-22T11:24:38;100221.63;;;23.66;40.30
74637;BME280;63141;54.616;39.754;2023-06-22T11:27:48;100227.09;;;23.63;40.84
74637;BME280;63141;54.616;39.754;2023-06-22T11:30:55;100229.81;;;23.61;40.16
74637;BME280;63141;54.616;39.754;2023-06-22T11:34:08;100223.63;;;23.61;40.81
74637;BME280;63141;54.616;39.754;2023-06-22T11:37:10;100225.22;;;23.65;41.49
74637;BME280;63141;54.616;39.754;2023-06-22T11:40:14;100226.81;;;23.69;41.49
74637;BME280;63141;54.616;39.754;2023-06-22T11:43:34;100232.84;;;23.73;41.98
74637;BME280;63141;54.616;39.754;2023-06-22T11:46:38;100229.22;;;23.75;41.78
74637;BME280;63141;54.616;39.754;2023-06-22T11:49:49;100219.38;;;23.77;41.71
74637;BME280;63141;54.616;39.754;2023-06-22T11:52:54;100211.28;;;23.80;42.17
74637;BME280;63141;54.616;39.754;2023-06-22T11:56:04;100203.19;;;23.82;41.72
74637;BME280;63141;54.616;39.754;2023-06-22T11:59:08;100194.25;;;23.85;41.68
74637;BME280;63141;54.616;39.754;2023-06-22T12:02:25;100184.47;;;23.85;42.77
74637;BME280;63141;54.616;39.754;2023-06-22T12:05:33;100190.47;;;23.89;42.63
74637;BME280;63141;54.616;39.754;2023-06-22T12:08:41;100187.63;;;23.93;43.02
74637;BME280;63141;54.616;39.754;2023-06-22T12:11:54;100179.41;;;23.98;43.01
74637;BME280;63141;54.616;39.754;2023-06-22T12:14:58;100175.69;;;24.02;43.38
74637;BME280;63141;54.616;39.754;2023-06-22T12:18:12;100177.97;;;24.10;43.20
74637;BME280;63141;54.616;39.754;2023-06-22T12:21:19;100169.75;;;24.14;43.56
74637;BME280;63141;54.616;39.754;2023-06-22T12:24:29;100167.84;;;24.18;44.11
74637;BME280;63141;54.616;39.754;2023-06-22T12:27:37;100171.06;;;24.24;43.74
74637;BME280;63141;54.616;39.754;2023-06-22T12:30:47;100164.72;;;24.27;43.82
74637;BME280;63141;54.616;39.754;2023-06-22T12:34:01;100161.84;;;24.32;43.56
74637;BME280;63141;54.616;39.754;2023-06-22T12:37:17;100157.25;;;24.35;44.17
74637;BME280;63141;54.616;39.754;2023-06-22T12:40:24;100153.63;;;24.36;44.98
74637;BME280;63141;54.616;39.754;2023-06-22T12:43:28;100136.63;;;24.39;45.37
74637;BME280;63141;54.616;39.754;2023-06-22T12:46:42;100139.31;;;24.39;45.30
74637;BME280;63141;54.616;39.754;2023-06-22T12:49:46;100146.38;;;24.40;45.40
74637;BME280;63141;54.616;39.754;2023-06-22T12:53:11;100132.16;;;24.39;44.71
74637;BME280;63141;54.616;39.754;2023-06-22T12:56:18;100125.38;;;24.34;44.15
74637;BME280;63141;54.616;39.754;2023-06-22T12:59:22;100141.41;;;24.32;43.80
74637;BME280;63141;54.616;39.754;2023-06-22T13:07:44;100123.78;;;24.30;42.42
74637;BME280;63141;54.616;39.754;2023-06-22T13:11:43;100106.00;;;24.30;41.63
74637;BME280;63141;54.616;39.754;2023-06-22T13:19:47;100115.09;;;24.26;40.08
74637;BME280;63141;54.616;39.754;2023-06-22T13:23:10;100107.13;;;24.26;39.51
74637;BME280;63141;54.616;39.754;2023-06-22T13:26:14;100107.13;;;24.26;39.46
74637;BME280;63141;54.616;39.754;2023-06-22T13:29:15;100105.31;;;24.27;39.44
74637;BME280;63141;54.616;39.754;2023-06-22T13:32:17;100100.00;;;24.27;39.18
74637;BME280;63141;54.616;39.754;2023-06-22T13:35:24;100106.19;;;24.27;39.14
74637;BME280;63141;54.616;39.754;2023-06-22T13:38:28;100091.94;;;24.28;38.87
74637;BME280;63141;54.616;39.754;2023-06-22T13:41:44;100091.06;;;24.28;38.91
74637;BME280;63141;54.616;39.754;2023-06-22T13:44:51;100084.03;;;24.27;39.10
74637;BME280;63141;54.616;39.754;2023-06-22T13:47:58;100092.88;;;24.27;38.88
74637;BME280;63141;54.616;39.754;2023-06-22T13:51:08;100086.69;;;24.27;38.76
74637;BME280;63141;54.616;39.754;2023-06-22T13:54:18;100085.03;;;24.24;38.94
74637;BME280;63141;54.616;39.754;2023-06-22T13:57:22;100077.41;;;24.16;38.53
74637;BME280;63141;54.616;39.754;2023-06-22T14:00:26;100066.16;;;24.11;38.71
74637;BME280;63141;54.616;39.754;2023-06-22T14:03:39;100062.88;;;24.06;38.91
74637;BME280;63141;54.616;39.754;2023-06-22T14:06:51;100060.38;;;24.03;39.29
74637;BME280;63141;54.616;39.754;2023-06-22T14:10:00;100070.22;;;24.01;38.95
74637;BME280;63141;54.616;39.754;2023-06-22T14:13:16;100068.69;;;23.95;38.79
74637;BME280;63141;54.616;39.754;2023-06-22T14:16:23;100062.69;;;23.92;39.25
74637;BME280;63141;54.616;39.754;2023-06-22T14:19:29;100060.16;;;23.89;38.94
74637;BME280;63141;54.616;39.754;2023-06-22T14:22:40;100060.25;;;23.87;39.19
74637;BME280;63141;54.616;39.754;2023-06-22T14:25:50;100059.59;;;23.82;38.72
74637;BME280;63141;54.616;39.754;2023-06-22T14:28:58;100053.56;;;23.78;39.26
74637;BME280;63141;54.616;39.754;2023-06-22T14:32:11;100063.41;;;23.76;38.87
74637;BME280;63141;54.616;39.754;2023-06-22T14:35:18;100053.75;;;23.74;38.67
74637;BME280;63141;54.616;39.754;2023-06-22T14:38:20;100057.44;;;23.71;38.70
74637;BME280;63141;54.616;39.754;2023-06-22T14:41:30;100050.47;;;23.69;38.74
74637;BME280;63141;54.616;39.754;2023-06-22T14:44:32;100052.41;;;23.65;38.88
74637;BME280;63141;54.616;39.754;2023-06-22T14:47:40;100051.53;;;23.65;38.72
74637;BME280;63141;54.616;39.754;2023-06-22T14:50:53;100049.00;;;23.61;39.06
74637;BME280;63141;54.616;39.754;2023-06-22T14:54:07;100054.41;;;23.60;38.78
74637;BME280;63141;54.616;39.754;2023-06-22T14:57:14;100043.00;;;23.58;38.82
74637;BME280;63141;54.616;39.754;2023-06-22T15:00:21;100043.00;;;23.58;38.52
74637;BME280;63141;54.616;39.754;2023-06-22T15:03:54;100035.09;;;23.56;38.49
74637;BME280;63141;54.616;39.754;2023-06-22T15:06:56;100041.41;;;23.54;38.55
74637;BME280;63141;54.616;39.754;2023-06-22T15:10:09;100042.25;;;23.54;38.52
74637;BME280;63141;54.616;39.754;2023-06-22T15:13:16;100040.63;;;23.52;38.61
74637;BME280;63141;54.616;39.754;2023-06-22T15:16:24;100028.28;;;23.51;38.55
74637;BME280;63141;54.616;39.754;2023-06-22T15:19:25;100033.66;;;23.49;38.57
74637;BME280;63141;54.616;39.754;2023-06-22T15:22:45;100035.47;;;23.49;38.69
74637;BME280;63141;54.616;39.754;2023-06-22T15:25:53;100026.63;;;23.48;38.76
74637;BME280;63141;54.616;39.754;2023-06-22T15:29:00;100029.34;;;23.47;38.60
74637;BME280;63141;54.616;39.754;2023-06-22T15:32:05;100030.28;;;23.46;38.48
74637;BME280;63141;54.616;39.754;2023-06-22T15:35:07;100019.72;;;23.44;38.61
74637;BME280;63141;54.616;39.754;2023-06-22T15:38:17;100014.41;;;23.44;38.58
74637;BME280;63141;54.616;39.754;2023-06-22T15:41:27;100018.88;;;23.44;38.33
74637;BME280;63141;54.616;39.754;2023-06-22T15:44:38;100017.97;;;23.43;38.21
74637;BME280;63141;54.616;39.754;2023-06-22T15:47:43;100017.13;;;23.42;38.53
74637;BME280;63141;54.616;39.754;2023-06-22T15:51:05;100013.56;;;23.44;38.53
74637;BME280;63141;54.616;39.754;2023-06-22T15:54:27;100012.75;;;23.41;38.36
74637;BME280;63141;54.616;39.754;2023-06-22T15:57:37;100013.69;;;23.40;38.47
74637;BME280;63141;54.616;39.754;2023-06-22T16:00:56;100030.63;;;23.38;38.54
74637;BME280;63141;54.616;39.754;2023-06-22T16:04:09;100039.47;;;23.38;38.38
74637;BME280;63141;54.616;39.754;2023-06-22T16:07:32;100045.72;;;23.37;38.73
74637;BME280;63141;54.616;39.754;2023-06-22T16:10:42;100049.31;;;23.36;39.33
74637;BME280;63141;54.616;39.754;2023-06-22T16:13:46;100052.06;;;23.35;39.35
74637;BME280;63141;54.616;39.754;2023-06-22T16:17:02;100065.41;;;23.33;39.51
74637;BME280;63141;54.616;39.754;2023-06-22T16:20:11;100069.00;;;23.32;39.89
74637;BME280;63141;54.616;39.754;2023-06-22T16:23:21;100077.03;;;23.31;40.05
74637;BME280;63141;54.616;39.754;2023-06-22T16:26:38;100078.91;;;23.29;40.76